KGSO/GSO METAR and TAF weather

Enter ICAO airport designator
Station Type Date Time Source
KGSO METAR 2020/09/22 20:54 UTC NOAA

KGSO 222054Z 28004KT 10SM BKN250 21/09 A3013 RMK AO2 SLP197 T02060094 56027


Station Type Date Time Source
KGSO Decoded METAR 2020/09/22 20:54 UTC NOAA

PIEDMONT TRIAD INTERNATIONAL AIRPORT , NC, United States (KGSO) 36-06N 079-57W 275M
Sep 22, 2020 - 04:54 PM EDT / 2020.09.22 2054 UTC
Wind: from the W (280 degrees) at 5 MPH (4 KT):0
Visibility: 10 mile(s):0
Sky conditions: mostly cloudy
Temperature: 69.1 F (20.6 C)
Dew Point: 48.9 F (9.4 C)
Relative Humidity: 48%
Pressure (altimeter): 30.13 in. Hg (1020 hPa)
Pressure tendency: 0.08 inches (2.7 hPa) lower than three hours ago
ob: KGSO 222054Z 28004KT 10SM BKN250 21/09 A3013 RMK AO2 SLP197 T02060094 56027
cycle: 21

Station Type Date Time Source
KGSO TAF 2020/09/22 18:28 UTC NOAA

TAF KGSO 221726Z 2218/2318 VRB04KT P6SM SCT250

Example: see airport list